Time;durP1;ratioP1;P1;durP2;ratioP2;P2;SDS_P1;SDS_P2;PMS_P1;PMS_P2;Temp;Humidity;BMP_temperature;BMP_pressure;BME280_temperature;BME280_humidity;BME280_pressure;Samples;Min_cycle;Max_cycle;Signal;HPM_P1;HPM_P2
2023/09/27 00:01:59;;;;;;;21.50;16.27;;;12.70;99.90;;;;;;8244690;28;20504;-66
2023/09/27 00:06:00;;;;;;;23.47;16.87;;;12.60;99.90;;;;;;8263494;28;20188;-65
2023/09/27 00:10:02;;;;;;;23.27;17.13;;;12.50;99.90;;;;;;8257899;28;20190;-67
2023/09/27 00:14:03;;;;;;;24.60;18.10;;;12.50;99.90;;;;;;8248045;28;20188;-65
2023/09/27 00:18:04;;;;;;;27.90;19.27;;;12.40;99.90;;;;;;8258538;28;20190;-65
2023/09/27 00:22:05;;;;;;;29.40;20.03;;;12.40;99.90;;;;;;8258774;28;20214;-67
2023/09/27 00:26:06;;;;;;;34.37;21.67;;;12.30;99.90;;;;;;8257398;28;20277;-65
2023/09/27 00:30:09;;;;;;;33.27;20.97;;;12.30;99.90;;;;;;8255035;28;20198;-65
2023/09/27 00:34:09;;;;;;;35.47;22.17;;;12.30;99.90;;;;;;8243235;28;20465;-66
2023/09/27 00:38:10;;;;;;;31.87;20.13;;;12.30;99.90;;;;;;8240384;28;20186;-67
2023/09/27 00:42:12;;;;;;;32.53;20.50;;;12.20;99.90;;;;;;8256379;28;20411;-65
2023/09/27 00:46:16;;;;;;;29.67;19.40;;;12.10;99.90;;;;;;8244720;28;20261;-66
2023/09/27 00:50:17;;;;;;;27.53;19.70;;;12.00;99.90;;;;;;8255846;28;20240;-66
2023/09/27 00:54:18;;;;;;;31.73;20.30;;;11.90;99.90;;;;;;8241472;28;20329;-64
2023/09/27 00:58:20;;;;;;;27.70;19.43;;;11.90;99.90;;;;;;8257733;28;20198;-68
2023/09/27 01:02:45;;;;;;;26.07;17.50;;;11.90;99.90;;;;;;8271164;28;20241;-68
2023/09/27 01:06:52;;;;;;;29.17;18.40;;;11.90;99.90;;;;;;8257053;28;20191;-69
2023/09/27 01:10:53;;;;;;;26.63;17.73;;;11.80;99.90;;;;;;8271341;28;20180;-68
2023/09/27 01:14:59;;;;;;;29.10;18.93;;;11.80;99.90;;;;;;8264771;28;20202;-68
2023/09/27 01:19:04;;;;;;;27.40;18.30;;;11.80;99.90;;;;;;8273857;28;20195;-65
2023/09/27 01:23:06;;;;;;;26.53;18.20;;;11.80;99.90;;;;;;8266352;28;20215;-66
2023/09/27 01:27:09;;;;;;;25.03;17.97;;;11.80;99.90;;;;;;8260729;28;20214;-66
2023/09/27 01:31:11;;;;;;;33.73;19.60;;;11.80;99.90;;;;;;8254892;28;20190;-65
2023/09/27 01:35:12;;;;;;;30.60;19.43;;;11.80;99.90;;;;;;8261172;28;20223;-66
2023/09/27 01:39:13;;;;;;;27.20;19.60;;;11.80;99.90;;;;;;8261497;28;20191;-66
2023/09/27 01:43:14;;;;;;;24.70;16.63;;;11.70;99.90;;;;;;8247778;28;20531;-65
2023/09/27 01:47:15;;;;;;;25.17;16.90;;;11.70;99.90;;;;;;8247554;28;20190;-66
2023/09/27 01:51:16;;;;;;;33.67;22.60;;;11.60;99.90;;;;;;8258426;28;20186;-66
2023/09/27 01:55:17;;;;;;;29.00;20.27;;;11.50;99.90;;;;;;8248999;28;20183;-66
2023/09/27 01:59:18;;;;;;;29.03;20.33;;;11.60;99.90;;;;;;8259144;28;20183;-64
2023/09/27 02:03:19;;;;;;;27.77;17.90;;;11.60;99.90;;;;;;8241270;28;20211;-64
2023/09/27 02:07:20;;;;;;;22.00;16.53;;;11.60;99.90;;;;;;8242945;28;20226;-66
2023/09/27 02:11:25;;;;;;;21.93;15.50;;;11.50;99.90;;;;;;8263784;28;20277;-67
2023/09/27 02:15:26;;;;;;;24.83;16.83;;;11.30;99.90;;;;;;8259766;28;20303;-67
2023/09/27 02:19:33;;;;;;;23.57;17.30;;;11.30;99.90;;;;;;8262091;28;20210;-68
2023/09/27 02:23:35;;;;;;;21.47;16.07;;;11.20;99.90;;;;;;8287002;28;20306;-69
2023/09/27 02:27:39;;;;;;;20.50;15.90;;;11.10;99.90;;;;;;8263589;28;20203;-67
2023/09/27 02:31:41;;;;;;;15.53;13.37;;;11.10;99.90;;;;;;8251701;28;20191;-67
2023/09/27 02:35:41;;;;;;;20.10;13.60;;;11.00;99.90;;;;;;8261528;28;20184;-66
2023/09/27 02:39:43;;;;;;;16.97;13.33;;;11.00;99.90;;;;;;8246535;28;20306;-65
2023/09/27 02:43:44;;;;;;;16.20;12.97;;;11.00;99.90;;;;;;8261020;28;20210;-65
2023/09/27 02:47:46;;;;;;;19.70;13.93;;;10.90;99.90;;;;;;8247867;28;20212;-64
2023/09/27 02:51:48;;;;;;;16.77;13.43;;;10.90;99.90;;;;;;8258800;28;20188;-67
2023/09/27 02:55:49;;;;;;;18.20;13.17;;;11.00;99.90;;;;;;8261261;28;20215;-66
2023/09/27 02:59:49;;;;;;;17.73;13.63;;;11.00;99.90;;;;;;8258415;28;20213;-66
2023/09/27 03:03:52;;;;;;;15.23;11.83;;;11.00;99.90;;;;;;8258660;28;20285;-65
2023/09/27 03:07:52;;;;;;;13.60;11.00;;;10.90;99.90;;;;;;8262002;28;20299;-66
2023/09/27 03:11:53;;;;;;;14.40;11.73;;;10.90;99.90;;;;;;8244569;28;20186;-65
2023/09/27 03:15:58;;;;;;;13.17;10.87;;;10.80;99.90;;;;;;8255873;28;20195;-65
2023/09/27 03:19:59;;;;;;;15.50;10.77;;;10.80;99.90;;;;;;8256601;28;20378;-65
2023/09/27 03:24:00;;;;;;;12.57;11.17;;;10.80;99.90;;;;;;8256375;28;21345;-65
2023/09/27 03:28:01;;;;;;;14.63;10.57;;;10.80;99.90;;;;;;8258539;28;20210;-66
2023/09/27 03:32:01;;;;;;;11.90;10.07;;;10.70;99.90;;;;;;8259665;28;20194;-66
2023/09/27 03:36:03;;;;;;;10.77;9.67;;;10.60;99.90;;;;;;8262806;28;20196;-65
2023/09/27 03:40:13;;;;;;;10.13;9.00;;;10.60;99.90;;;;;;8247769;28;20250;-66
2023/09/27 03:44:13;;;;;;;10.37;9.27;;;10.50;99.90;;;;;;8249630;28;20221;-66
2023/09/27 03:48:15;;;;;;;11.03;9.27;;;10.50;99.90;;;;;;8259100;28;20585;-65
2023/09/27 03:52:16;;;;;;;12.23;10.37;;;10.50;99.90;;;;;;8256880;28;20465;-64
2023/09/27 03:56:17;;;;;;;11.43;10.23;;;10.50;99.90;;;;;;8259300;28;20218;-66
2023/09/27 04:00:18;;;;;;;11.30;9.93;;;10.50;99.90;;;;;;8256378;28;20183;-65
2023/09/27 04:04:19;;;;;;;9.70;8.70;;;10.50;99.90;;;;;;8239375;28;20222;-66
2023/09/27 04:08:19;;;;;;;9.00;8.10;;;10.40;99.90;;;;;;8259422;28;20183;-66
2023/09/27 04:12:20;;;;;;;31.83;10.03;;;10.40;99.90;;;;;;8242884;28;20460;-65
2023/09/27 04:16:21;;;;;;;8.90;8.00;;;10.40;99.90;;;;;;8239339;28;20201;-64
2023/09/27 04:20:25;;;;;;;7.37;6.67;;;10.40;99.90;;;;;;8258853;28;20260;-66
2023/09/27 04:24:27;;;;;;;7.90;7.10;;;10.20;99.90;;;;;;8240890;28;20219;-65
2023/09/27 04:28:27;;;;;;;7.97;6.97;;;10.20;99.90;;;;;;8255506;28;20202;-65
2023/09/27 04:32:28;;;;;;;6.93;6.23;;;10.10;99.90;;;;;;8256404;28;20195;-65
2023/09/27 04:36:30;;;;;;;8.13;7.23;;;10.10;99.90;;;;;;8257115;28;20198;-66
2023/09/27 04:40:31;;;;;;;9.13;7.53;;;10.10;99.90;;;;;;8243287;28;20194;-66
2023/09/27 04:44:31;;;;;;;9.43;7.40;;;10.10;99.90;;;;;;8256899;28;20240;-65
2023/09/27 04:48:32;;;;;;;7.67;6.70;;;10.10;99.90;;;;;;8247134;28;20194;-64
2023/09/27 04:52:33;;;;;;;8.57;7.67;;;10.10;99.90;;;;;;8247933;28;20198;-65
2023/09/27 04:56:35;;;;;;;11.63;8.37;;;10.20;99.90;;;;;;8236861;28;20218;-66
2023/09/27 05:00:39;;;;;;;11.17;9.17;;;10.20;99.90;;;;;;8266246;28;20185;-68
2023/09/27 05:04:41;;;;;;;9.77;8.60;;;10.20;99.90;;;;;;8268968;28;20221;-69
2023/09/27 05:08:41;;;;;;;9.63;7.90;;;10.20;99.90;;;;;;8254013;28;20191;-66
2023/09/27 05:12:42;;;;;;;10.23;8.90;;;10.30;99.90;;;;;;8257123;28;20288;-67
2023/09/27 05:16:44;;;;;;;14.37;12.57;;;10.40;99.90;;;;;;8255873;28;20198;-67
2023/09/27 05:20:45;;;;;;;13.87;12.27;;;10.50;99.90;;;;;;8254374;28;20191;-69
2023/09/27 05:24:46;;;;;;;17.53;15.07;;;10.70;99.90;;;;;;8254703;28;20249;-68
2023/09/27 05:28:47;;;;;;;18.47;13.20;;;10.80;99.90;;;;;;8237558;28;20256;-69
2023/09/27 05:32:50;;;;;;;13.13;11.30;;;10.90;99.90;;;;;;8253292;28;20270;-69
2023/09/27 05:36:51;;;;;;;13.37;11.17;;;10.90;99.90;;;;;;8255718;28;20211;-69
2023/09/27 05:40:52;;;;;;;12.27;10.97;;;10.90;99.90;;;;;;8253665;28;20200;-70
2023/09/27 05:44:53;;;;;;;14.30;11.83;;;10.90;99.90;;;;;;8245422;28;20224;-69
2023/09/27 05:48:54;;;;;;;15.57;12.23;;;11.00;99.90;;;;;;8235491;28;20254;-70
2023/09/27 05:52:56;;;;;;;13.47;11.43;;;10.90;99.90;;;;;;8261250;28;20198;-69
2023/09/27 05:56:56;;;;;;;14.83;11.57;;;11.00;99.90;;;;;;8265021;28;20201;-68
2023/09/27 06:00:57;;;;;;;16.70;13.30;;;11.10;99.90;;;;;;8258835;28;20211;-69
2023/09/27 06:04:59;;;;;;;14.53;11.60;;;11.30;99.90;;;;;;8242899;28;20224;-69
2023/09/27 06:08:59;;;;;;;16.87;13.80;;;11.30;99.90;;;;;;8252221;28;20290;-69
2023/09/27 06:13:00;;;;;;;18.00;13.13;;;11.50;99.90;;;;;;8260612;28;20195;-71
2023/09/27 06:17:05;;;;;;;14.70;12.30;;;11.50;99.90;;;;;;8250067;28;20585;-69
2023/09/27 06:21:07;;;;;;;21.00;16.90;;;11.60;99.90;;;;;;8249433;28;20200;-70
2023/09/27 06:25:08;;;;;;;23.20;17.27;;;11.90;99.90;;;;;;8260395;28;20176;-69
2023/09/27 06:29:09;;;;;;;18.60;14.47;;;12.20;99.90;;;;;;8245147;28;20208;-69
2023/09/27 06:33:09;;;;;;;25.93;18.23;;;12.30;99.90;;;;;;8249672;28;20241;-70
2023/09/27 06:37:10;;;;;;;19.20;16.73;;;12.40;99.90;;;;;;8262574;28;20191;-70
2023/09/27 06:41:11;;;;;;;19.73;16.63;;;12.60;99.90;;;;;;8262840;28;20275;-70
2023/09/27 06:45:13;;;;;;;23.80;18.50;;;12.80;99.90;;;;;;8247540;28;20195;-69
2023/09/27 06:49:14;;;;;;;23.90;19.63;;;13.20;99.90;;;;;;8243364;28;20198;-70
2023/09/27 06:53:15;;;;;;;24.17;18.97;;;13.60;99.90;;;;;;8245187;28;20306;-70
2023/09/27 06:57:16;;;;;;;36.43;32.53;;;13.90;99.90;;;;;;8243332;28;20261;-69
2023/09/27 07:01:21;;;;;;;28.83;19.97;;;14.10;99.90;;;;;;8242341;28;20211;-70
2023/09/27 07:05:23;;;;;;;25.57;19.37;;;14.20;99.90;;;;;;8262812;28;20179;-69
2023/09/27 07:09:24;;;;;;;23.30;18.37;;;14.40;99.90;;;;;;8259568;28;20175;-70
2023/09/27 07:13:25;;;;;;;19.43;17.33;;;14.60;99.90;;;;;;8246511;28;20186;-69
2023/09/27 07:17:25;;;;;;;19.57;17.30;;;14.80;99.90;;;;;;8256428;28;20249;-69
2023/09/27 07:21:27;;;;;;;19.33;17.33;;;15.20;99.90;;;;;;8262356;28;22151;-69
2023/09/27 07:25:28;;;;;;;19.70;16.57;;;15.50;99.90;;;;;;8261870;28;20214;-70
2023/09/27 07:29:30;;;;;;;15.50;13.90;;;15.80;99.90;;;;;;8261688;28;20203;-70
2023/09/27 07:33:31;;;;;;;13.93;12.63;;;16.10;99.90;;;;;;8265396;28;20282;-70
2023/09/27 07:37:34;;;;;;;16.30;14.67;;;16.50;99.90;;;;;;8240964;28;20192;-70
2023/09/27 07:41:35;;;;;;;17.53;14.13;;;17.00;99.90;;;;;;8241862;28;20237;-71
2023/09/27 07:45:41;;;;;;;15.73;14.03;;;17.40;99.90;;;;;;8249041;28;20198;-70
2023/09/27 07:49:42;;;;;;;13.20;12.00;;;17.80;99.90;;;;;;8260109;28;20195;-72
2023/09/27 07:53:43;;;;;;;11.97;10.80;;;18.20;99.90;;;;;;8248419;28;20210;-71
2023/09/27 07:57:45;;;;;;;12.90;11.60;;;18.50;99.90;;;;;;8260411;28;20191;-70
2023/09/27 08:01:46;;;;;;;12.23;10.97;;;18.80;99.90;;;;;;8258244;28;20225;-71
2023/09/27 08:05:49;;;;;;;10.63;9.53;;;19.10;99.90;;;;;;8258952;28;20265;-71
2023/09/27 08:09:51;;;;;;;10.00;8.90;;;19.40;99.90;;;;;;8257758;28;20191;-71
2023/09/27 08:13:53;;;;;;;8.83;7.93;;;19.70;99.90;;;;;;8260815;28;20219;-72
2023/09/27 08:17:57;;;;;;;10.50;8.47;;;20.00;99.90;;;;;;8255554;28;20191;-71
2023/09/27 08:21:58;;;;;;;9.33;8.47;;;20.30;99.90;;;;;;8242111;28;20260;-71
2023/09/27 08:26:00;;;;;;;9.90;8.50;;;20.50;99.90;;;;;;8242494;28;20241;-72
2023/09/27 08:30:05;;;;;;;9.20;7.07;;;20.80;99.90;;;;;;8249217;28;20192;-72
2023/09/27 08:34:06;;;;;;;10.97;8.10;;;21.00;99.90;;;;;;8261155;28;20427;-69
2023/09/27 08:38:08;;;;;;;8.57;6.93;;;21.30;99.90;;;;;;8246853;28;20206;-70
2023/09/27 08:42:09;;;;;;;7.57;6.87;;;21.60;99.90;;;;;;8259039;28;20203;-69
2023/09/27 08:46:10;;;;;;;8.63;6.53;;;21.80;99.90;;;;;;8241540;28;20270;-69
2023/09/27 08:50:15;;;;;;;11.83;7.77;;;22.10;42.30;;;;;;8257230;28;20187;-69
2023/09/27 08:54:21;;;;;;;9.63;7.53;;;22.30;1.00;;;;;;8263240;28;20192;-70
2023/09/27 08:58:25;;;;;;;10.07;6.53;;;22.60;1.00;;;;;;8258208;28;20192;-69
2023/09/27 09:02:27;;;;;;;7.60;6.82;;;22.80;1.00;;;;;;8239897;28;20211;-69
2023/09/27 09:06:31;;;;;;;9.57;6.63;;;22.90;1.00;;;;;;8241335;28;20197;-69
2023/09/27 09:10:33;;;;;;;7.07;6.35;;;23.00;1.00;;;;;;8259597;28;20308;-69
2023/09/27 09:14:49;;;;;;;7.35;5.93;;;23.20;1.00;;;;;;8248065;28;20298;-69
2023/09/27 09:18:54;;;;;;;7.43;6.57;;;23.30;1.00;;;;;;8257709;28;20235;-67
2023/09/27 09:22:57;;;;;;;6.65;6.05;;;23.40;1.00;;;;;;8256511;28;20211;-66
2023/09/27 09:27:16;;;;;;;8.32;5.63;;;23.60;1.00;;;;;;8241838;28;20207;-69
2023/09/27 09:31:25;;;;;;;6.60;6.00;;;23.80;1.00;;;;;;8267009;28;20171;-71
2023/09/27 09:35:30;;;;;;;6.30;5.68;;;24.00;1.00;;;;;;8258989;28;20183;-68
2023/09/27 09:39:31;;;;;;;13.48;6.15;;;24.20;1.00;;;;;;8265326;28;20199;-67
2023/09/27 09:43:33;;;;;;;11.73;5.78;;;24.30;1.00;;;;;;8264170;28;20208;-66
2023/09/27 09:47:35;;;;;;;6.93;5.68;;;24.50;1.00;;;;;;8262867;28;20195;-67
2023/09/27 09:51:41;;;;;;;7.70;5.60;;;24.50;1.00;;;;;;8260364;28;20240;-68
2023/09/27 09:55:46;;;;;;;9.95;6.13;;;24.60;1.00;;;;;;8261826;28;20188;-64
2023/09/27 09:59:50;;;;;;;8.45;5.63;;;24.80;1.00;;;;;;8259734;28;20191;-65
2023/09/27 10:03:55;;;;;;;6.88;5.65;;;24.80;1.00;;;;;;8250599;28;20669;-66
2023/09/27 10:07:55;;;;;;;9.45;6.03;;;24.90;1.00;;;;;;8251272;28;20195;-68
2023/09/27 10:11:59;;;;;;;9.77;5.63;;;25.00;1.00;;;;;;8265848;28;20191;-66
2023/09/27 10:16:01;;;;;;;7.32;5.80;;;25.00;1.00;;;;;;8263462;28;20191;-68
2023/09/27 10:20:14;;;;;;;8.50;5.97;;;25.00;1.00;;;;;;8253035;28;20241;-66
2023/09/27 10:24:26;;;;;;;7.47;5.63;;;25.20;1.00;;;;;;8261834;28;20211;-67
2023/09/27 10:28:28;;;;;;;11.02;6.15;;;25.20;1.00;;;;;;8263839;28;20203;-67
2023/09/27 10:32:31;;;;;;;8.25;5.72;;;25.30;1.00;;;;;;8249384;28;20183;-67
2023/09/27 10:36:32;;;;;;;7.90;5.30;;;25.10;1.00;;;;;;8259684;28;20187;-68
2023/09/27 10:40:45;;;;;;;10.82;6.28;;;25.20;1.00;;;;;;8254408;28;20315;-70
2023/09/27 10:44:45;;;;;;;7.43;5.43;;;25.20;1.00;;;;;;8262394;28;20208;-67
2023/09/27 10:49:00;;;;;;;8.73;6.20;;;25.30;1.00;;;;;;8263012;28;20190;-69
2023/09/27 10:53:00;;;;;;;11.77;5.72;;;25.40;1.00;;;;;;8257826;28;20184;-66
2023/09/27 10:57:02;;;;;;;9.68;5.43;;;25.40;1.00;;;;;;8260054;28;20431;-70
2023/09/27 11:01:04;;;;;;;10.75;5.72;;;25.50;1.00;;;;;;8258027;28;20191;-71
2023/09/27 11:05:07;;;;;;;11.35;5.40;;;25.60;1.00;;;;;;8262521;28;20486;-69
2023/09/27 11:09:12;;;;;;;13.20;5.72;;;25.60;1.00;;;;;;8264149;28;20180;-72
2023/09/27 11:13:14;;;;;;;11.82;5.88;;;25.70;1.00;;;;;;8261638;28;20192;-66
2023/09/27 11:17:22;;;;;;;9.02;5.60;;;25.70;1.00;;;;;;8243132;28;20250;-68
2023/09/27 11:21:25;;;;;;;7.55;4.95;;;25.80;1.00;;;;;;8261797;28;20416;-71
2023/09/27 11:25:35;;;;;;;8.50;5.18;;;25.90;1.00;;;;;;8258673;28;20190;-65
2023/09/27 11:29:36;;;;;;;10.10;4.90;;;26.00;1.00;;;;;;8246922;28;20211;-70
2023/09/27 11:33:37;;;;;;;11.13;5.22;;;26.10;1.00;;;;;;8258361;28;20216;-67
2023/09/27 11:37:39;;;;;;;6.88;4.75;;;26.10;1.00;;;;;;8255122;28;20183;-67
2023/09/27 11:41:40;;;;;;;9.60;5.30;;;26.20;1.00;;;;;;8258287;28;20388;-69
2023/09/27 11:45:51;;;;;;;9.35;4.75;;;26.30;1.00;;;;;;8258734;28;20180;-69
2023/09/27 11:49:53;;;;;;;8.25;4.20;;;26.30;1.00;;;;;;8258734;28;20188;-71
2023/09/27 11:53:56;;;;;;;10.93;5.07;;;26.30;1.00;;;;;;8243949;28;20194;-72
2023/09/27 11:57:58;;;;;;;5.25;4.28;;;26.40;1.00;;;;;;8259866;28;20187;-71
2023/09/27 12:01:59;;;;;;;8.77;4.13;;;26.50;1.00;;;;;;8259060;28;20222;-68
2023/09/27 12:06:00;;;;;;;6.88;4.07;;;26.60;1.00;;;;;;8241412;28;20175;-68
2023/09/27 12:10:01;;;;;;;7.25;4.10;;;26.60;1.00;;;;;;8243314;28;20265;-68
2023/09/27 12:14:03;;;;;;;6.80;4.40;;;26.60;1.00;;;;;;8256600;28;20250;-69
2023/09/27 12:18:06;;;;;;;6.18;3.50;;;26.60;1.00;;;;;;8243794;28;20189;-69
2023/09/27 12:22:07;;;;;;;5.90;4.13;;;26.70;1.00;;;;;;8259788;28;20211;-70
2023/09/27 12:26:09;;;;;;;4.68;3.60;;;26.70;1.00;;;;;;8264813;28;20211;-68
2023/09/27 12:30:10;;;;;;;5.70;3.60;;;26.80;1.00;;;;;;8245773;28;20270;-69
2023/09/27 12:34:11;;;;;;;5.72;3.33;;;26.80;1.00;;;;;;8258680;28;20186;-71
2023/09/27 12:38:12;;;;;;;5.65;3.50;;;26.80;1.00;;;;;;8246169;28;20195;-69
2023/09/27 12:42:14;;;;;;;8.13;3.40;;;26.80;1.00;;;;;;8258290;28;20239;-71
2023/09/27 12:46:14;;;;;;;8.02;3.70;;;26.90;1.00;;;;;;8243040;28;20225;-71
2023/09/27 12:50:16;;;;;;;6.13;3.45;;;26.90;1.00;;;;;;8244850;28;20180;-70
2023/09/27 12:54:18;;;;;;;8.55;3.50;;;26.90;1.00;;;;;;8259965;28;20191;-68
2023/09/27 12:58:19;;;;;;;7.68;3.58;;;27.00;1.00;;;;;;8241998;28;20184;-68
2023/09/27 13:02:20;;;;;;;6.80;3.42;;;27.00;1.00;;;;;;8248697;28;20210;-69
2023/09/27 13:06:21;;;;;;;7.88;3.30;;;27.00;1.00;;;;;;8267452;28;20180;-66
2023/09/27 13:10:22;;;;;;;5.40;3.05;;;26.90;1.00;;;;;;8247757;28;20361;-69
2023/09/27 13:14:23;;;;;;;4.55;3.10;;;26.90;1.00;;;;;;8251455;28;20192;-71
2023/09/27 13:18:27;;;;;;;5.47;2.95;;;26.90;1.00;;;;;;8265730;28;20289;-67
2023/09/27 13:22:27;;;;;;;5.57;2.78;;;26.90;1.00;;;;;;8264940;28;20207;-70
2023/09/27 13:26:29;;;;;;;7.72;3.05;;;26.90;1.00;;;;;;8262284;28;20532;-68
2023/09/27 13:30:32;;;;;;;9.43;3.22;;;26.90;1.00;;;;;;8264442;28;20218;-71
2023/09/27 13:34:33;;;;;;;5.90;2.55;;;26.90;1.00;;;;;;8252291;28;20222;-67
2023/09/27 13:38:36;;;;;;;6.07;2.80;;;26.90;1.00;;;;;;8260703;28;20188;-69
2023/09/27 13:42:37;;;;;;;3.80;2.60;;;26.80;1.00;;;;;;8263570;28;20222;-71
2023/09/27 13:46:38;;;;;;;6.00;3.63;;;26.80;1.00;;;;;;8264091;28;20436;-71
2023/09/27 13:50:39;;;;;;;5.30;3.08;;;26.70;1.00;;;;;;8245924;28;20179;-65
2023/09/27 13:54:42;;;;;;;7.75;2.80;;;26.60;1.00;;;;;;8261637;28;20294;-70
2023/09/27 13:58:43;;;;;;;5.53;2.35;;;26.60;1.00;;;;;;8264443;28;20187;-70
2023/09/27 14:02:44;;;;;;;3.53;2.45;;;26.60;1.00;;;;;;8260483;28;20234;-69
2023/09/27 14:06:44;;;;;;;4.18;3.03;;;26.60;1.00;;;;;;8254329;28;20474;-69
2023/09/27 14:10:45;;;;;;;8.52;3.05;;;26.60;1.00;;;;;;8253724;28;20215;-70
2023/09/27 14:14:46;;;;;;;4.57;2.80;;;26.60;1.00;;;;;;8248821;28;20197;-71
2023/09/27 14:18:47;;;;;;;9.88;3.08;;;26.50;1.00;;;;;;8259738;28;20187;-68
2023/09/27 14:22:48;;;;;;;3.83;2.88;;;26.50;1.00;;;;;;8252383;28;20207;-71
2023/09/27 14:26:49;;;;;;;4.45;2.88;;;26.50;1.00;;;;;;8264119;28;20203;-67
2023/09/27 14:30:50;;;;;;;8.35;2.80;;;26.50;1.00;;;;;;8263716;28;20188;-70
2023/09/27 14:34:54;;;;;;;8.93;3.53;;;26.50;1.00;;;;;;8252710;28;20271;-68
2023/09/27 14:39:01;;;;;;;5.93;3.30;;;26.50;1.00;;;;;;8264191;28;20184;-71
2023/09/27 14:43:02;;;;;;;10.00;3.60;;;26.40;1.00;;;;;;8259589;28;20295;-71
2023/09/27 14:47:04;;;;;;;7.10;3.13;;;26.40;1.00;;;;;;8260151;28;20184;-70
2023/09/27 14:51:09;;;;;;;5.70;2.95;;;26.30;1.00;;;;;;8257436;28;20183;-71
2023/09/27 14:55:14;;;;;;;5.70;2.90;;;26.30;1.00;;;;;;8260322;28;20191;-69
2023/09/27 14:59:15;;;;;;;6.43;3.17;;;26.30;1.00;;;;;;8249566;28;20199;-69
2023/09/27 15:03:16;;;;;;;4.93;3.00;;;26.20;1.00;;;;;;8251001;28;20245;-69
2023/09/27 15:07:19;;;;;;;4.53;2.92;;;26.20;1.00;;;;;;8261060;28;20274;-70
2023/09/27 15:11:24;;;;;;;6.15;3.00;;;26.10;1.00;;;;;;8259399;28;20565;-70
2023/09/27 15:15:28;;;;;;;5.15;3.42;;;26.00;1.00;;;;;;8242231;28;20188;-71
2023/09/27 15:19:29;;;;;;;6.57;3.20;;;26.00;1.00;;;;;;8243632;28;20266;-70
2023/09/27 15:23:29;;;;;;;3.72;3.05;;;25.80;1.00;;;;;;8260028;28;20215;-68
2023/09/27 15:27:30;;;;;;;5.45;3.33;;;25.70;1.00;;;;;;8261147;28;20258;-69
2023/09/27 15:31:31;;;;;;;6.95;3.45;;;25.50;1.00;;;;;;8259633;28;20184;-69
2023/09/27 15:35:32;;;;;;;4.30;3.30;;;25.40;1.00;;;;;;8248654;28;20180;-69
2023/09/27 15:39:33;;;;;;;5.13;3.20;;;25.20;1.00;;;;;;8250321;28;20187;-68
2023/09/27 15:43:33;;;;;;;4.72;3.05;;;25.20;1.00;;;;;;8258492;28;20214;-69
2023/09/27 15:47:34;;;;;;;5.90;3.53;;;25.00;1.00;;;;;;8263578;28;20291;-69
2023/09/27 15:51:38;;;;;;;6.50;2.95;;;24.80;1.00;;;;;;8258812;28;20211;-68
2023/09/27 15:55:39;;;;;;;2.72;2.47;;;24.60;1.00;;;;;;8245267;28;20184;-69
2023/09/27 15:59:40;;;;;;;3.90;2.70;;;24.40;1.00;;;;;;8247003;28;20463;-68
2023/09/27 16:03:41;;;;;;;4.03;3.03;;;24.10;1.00;;;;;;8261081;28;20210;-67
2023/09/27 16:07:42;;;;;;;4.25;2.90;;;23.80;1.00;;;;;;8257818;28;20180;-68
2023/09/27 16:11:43;;;;;;;5.30;4.50;;;23.50;1.00;;;;;;8259112;28;20183;-68
2023/09/27 16:15:44;;;;;;;5.30;4.17;;;23.20;1.00;;;;;;8258919;28;20190;-68
2023/09/27 16:25:14;;;;;;;4.60;3.60;;;22.50;1.00;;;;;;8255990;28;20217;-66
2023/09/27 16:29:15;;;;;;;4.70;3.60;;;22.00;1.00;;;;;;8243027;28;20200;-69
2023/09/27 16:33:16;;;;;;;5.70;3.70;;;21.60;1.00;;;;;;8239576;28;20195;-69
2023/09/27 16:37:18;;;;;;;3.90;3.50;;;21.20;1.00;;;;;;8257034;28;20202;-70
2023/09/27 16:41:19;;;;;;;4.13;3.73;;;20.80;1.00;;;;;;8262314;28;20192;-69
2023/09/27 16:45:20;;;;;;;3.90;3.60;;;20.50;1.00;;;;;;8248235;28;20215;-69
2023/09/27 16:49:21;;;;;;;4.73;4.30;;;20.10;1.00;;;;;;8242933;28;20234;-68
2023/09/27 16:53:24;;;;;;;6.17;3.97;;;19.80;1.00;;;;;;8245985;28;20184;-69
2023/09/27 16:57:26;;;;;;;5.77;4.23;;;19.50;1.00;;;;;;8263965;28;20198;-67
2023/09/27 17:01:27;;;;;;;5.27;4.77;;;19.20;1.00;;;;;;8247297;28;20199;-70
2023/09/27 17:05:28;;;;;;;5.23;4.70;;;18.90;1.00;;;;;;8247802;28;20211;-63
2023/09/27 17:09:29;;;;;;;5.27;4.77;;;18.70;1.00;;;;;;8245819;28;20207;-65
2023/09/27 17:13:31;;;;;;;5.10;4.40;;;18.40;1.00;;;;;;8253424;28;20183;-65
2023/09/27 17:17:32;;;;;;;4.90;4.50;;;18.20;1.00;;;;;;8241447;28;20190;-66
2023/09/27 17:21:33;;;;;;;5.33;4.80;;;17.90;1.00;;;;;;8255426;28;20187;-67
2023/09/27 17:25:34;;;;;;;5.13;4.43;;;17.80;9.40;;;;;;8242835;28;20218;-65
2023/09/27 17:29:35;;;;;;;5.37;4.90;;;17.60;26.50;;;;;;8254601;28;20286;-66
2023/09/27 17:33:37;;;;;;;5.73;4.60;;;17.40;49.70;;;;;;8255158;28;20188;-65
2023/09/27 17:37:38;;;;;;;5.67;4.70;;;17.30;66.90;;;;;;8256871;28;20190;-67
2023/09/27 17:41:39;;;;;;;6.93;4.70;;;17.10;88.60;;;;;;8259044;28;20180;-67
2023/09/27 17:45:42;;;;;;;6.17;5.30;;;16.90;99.90;;;;;;8237276;28;20267;-64
2023/09/27 17:49:43;;;;;;;5.77;4.60;;;16.80;99.90;;;;;;8246235;28;20191;-64
2023/09/27 17:53:48;;;;;;;8.10;5.20;;;16.70;99.90;;;;;;8258860;28;20402;-64
2023/09/27 17:57:49;;;;;;;6.43;5.37;;;16.50;99.90;;;;;;8262300;28;20222;-67
2023/09/27 18:01:51;;;;;;;9.40;5.47;;;16.40;99.90;;;;;;8266055;28;20227;-67
2023/09/27 18:05:52;;;;;;;6.40;5.80;;;16.30;99.90;;;;;;8252504;28;20206;-67
2023/09/27 18:09:54;;;;;;;7.13;5.17;;;16.10;99.90;;;;;;8263354;28;20192;-65
2023/09/27 18:13:55;;;;;;;6.03;5.43;;;16.00;99.90;;;;;;8249462;28;20191;-67
2023/09/27 18:17:56;;;;;;;6.97;5.83;;;15.90;99.90;;;;;;8259958;28;20202;-64
2023/09/27 18:21:57;;;;;;;9.33;6.53;;;15.70;99.90;;;;;;8257223;28;20192;-66
2023/09/27 18:25:58;;;;;;;10.27;6.63;;;15.70;99.90;;;;;;8243137;28;20188;-65
2023/09/27 18:29:59;;;;;;;10.67;6.97;;;15.60;99.90;;;;;;8258617;28;20184;-66
2023/09/27 18:34:00;;;;;;;11.17;7.17;;;15.60;99.90;;;;;;8245131;28;20366;-67
2023/09/27 18:38:03;;;;;;;13.97;6.97;;;15.50;99.90;;;;;;8261045;28;20190;-64
2023/09/27 18:42:04;;;;;;;12.33;7.03;;;15.50;99.90;;;;;;8262085;28;20233;-65
2023/09/27 18:46:05;;;;;;;9.13;6.83;;;15.40;99.90;;;;;;8260729;28;20191;-66
2023/09/27 18:50:07;;;;;;;10.80;7.40;;;15.40;99.90;;;;;;8251101;28;20219;-66
2023/09/27 18:54:08;;;;;;;9.43;7.03;;;15.40;99.90;;;;;;8262770;28;20299;-66
2023/09/27 18:58:12;;;;;;;9.97;7.20;;;15.30;99.90;;;;;;8246709;28;20201;-64
2023/09/27 19:02:13;;;;;;;14.47;8.53;;;15.30;99.90;;;;;;8258786;28;20211;-67
2023/09/27 19:06:14;;;;;;;10.70;7.77;;;15.30;99.90;;;;;;8259826;28;20192;-66
2023/09/27 19:10:17;;;;;;;10.63;7.67;;;15.20;99.90;;;;;;8253657;28;20261;-69
2023/09/27 19:14:18;;;;;;;9.23;7.47;;;15.00;99.90;;;;;;8255052;28;20257;-69
2023/09/27 19:18:19;;;;;;;11.37;7.50;;;14.80;99.90;;;;;;8262987;28;20207;-68
2023/09/27 19:22:20;;;;;;;9.63;6.97;;;14.60;99.90;;;;;;8263239;28;20238;-68
2023/09/27 19:26:22;;;;;;;9.40;7.30;;;14.50;99.90;;;;;;8261769;28;20294;-68
2023/09/27 19:30:23;;;;;;;12.23;7.93;;;14.40;99.90;;;;;;8249095;28;20191;-68
2023/09/27 19:34:24;;;;;;;10.73;8.97;;;14.30;1.00;;;;;;8247347;28;20191;-69
2023/09/27 19:38:25;;;;;;;9.70;8.17;;;14.20;1.00;;;;;;8263691;28;20483;-68
2023/09/27 19:42:26;;;;;;;9.47;8.03;;;14.10;1.00;;;;;;8250768;28;20211;-69
2023/09/27 19:46:28;;;;;;;9.13;6.87;;;14.00;1.00;;;;;;8261055;28;20270;-68
2023/09/27 19:50:30;;;;;;;10.17;7.70;;;13.80;1.00;;;;;;8260564;28;20199;-68
2023/09/27 19:54:35;;;;;;;7.70;6.97;;;13.70;32.00;;;;;;8264511;28;20191;-68
2023/09/27 19:58:36;;;;;;;8.47;7.53;;;13.60;96.50;;;;;;8246825;28;20200;-68
2023/09/27 20:02:37;;;;;;;8.10;7.27;;;13.50;99.90;;;;;;8262709;28;20211;-67
2023/09/27 20:06:56;;;;;;;8.00;7.20;;;13.40;99.90;;;;;;8265983;28;20183;-69
2023/09/27 20:10:57;;;;;;;9.90;7.83;;;13.30;99.90;;;;;;8265762;28;20415;-68
2023/09/27 20:14:58;;;;;;;10.17;8.80;;;13.30;99.90;;;;;;8260624;28;20203;-68
2023/09/27 20:19:00;;;;;;;9.47;7.80;;;13.20;99.90;;;;;;8260115;28;20196;-69
2023/09/27 20:23:02;;;;;;;10.27;8.50;;;13.10;99.90;;;;;;8244222;28;20214;-68
2023/09/27 20:27:03;;;;;;;10.00;7.37;;;13.00;99.90;;;;;;8262350;28;20258;-69
2023/09/27 20:31:06;;;;;;;10.30;8.70;;;12.90;1.00;;;;;;8266708;28;20192;-69
2023/09/27 20:35:12;;;;;;;11.17;9.13;;;12.90;1.00;;;;;;8263784;28;20207;-69
2023/09/27 20:39:15;;;;;;;11.57;8.50;;;12.80;99.90;;;;;;8246227;28;20286;-69
2023/09/27 20:43:16;;;;;;;15.30;10.03;;;12.70;99.90;;;;;;8259000;28;20507;-68
2023/09/27 20:47:21;;;;;;;9.70;8.37;;;12.70;99.90;;;;;;8250109;28;20199;-69
2023/09/27 20:51:24;;;;;;;12.93;8.77;;;12.60;99.90;;;;;;8245389;28;20275;-69
2023/09/27 20:55:25;;;;;;;10.90;8.90;;;12.60;99.90;;;;;;8248197;28;20226;-69
2023/09/27 20:59:28;;;;;;;21.57;12.07;;;12.60;99.90;;;;;;8266959;28;20183;-68